sensor_id;sensor_type;location;lat;lon;timestamp;P1;P2;P0
80413;PMS5003;69758;52.580;13.068;2024-02-26T00:00:59;78;75;
80413;PMS5003;69758;52.580;13.068;2024-02-26T00:03:25;77;74;
80413;PMS5003;69758;52.580;13.068;2024-02-26T00:05:50;78;72;
80413;PMS5003;69758;52.580;13.068;2024-02-26T00:08:15;80;75;
80413;PMS5003;69758;52.580;13.068;2024-02-26T00:10:41;81;70;
80413;PMS5003;69758;52.580;13.068;2024-02-26T00:13:06;74;69;
80413;PMS5003;69758;52.580;13.068;2024-02-26T00:15:32;67;60;
80413;PMS5003;69758;52.580;13.068;2024-02-26T00:17:57;67;64;
80413;PMS5003;69758;52.580;13.068;2024-02-26T00:20:22;63;63;
80413;PMS5003;69758;52.580;13.068;2024-02-26T00:22:48;62;58;
80413;PMS5003;69758;52.580;13.068;2024-02-26T00:25:14;70;64;
80413;PMS5003;69758;52.580;13.068;2024-02-26T00:27:39;66;59;
80413;PMS5003;69758;52.580;13.068;2024-02-26T00:30:05;67;61;
80413;PMS5003;69758;52.580;13.068;2024-02-26T00:32:30;67;62;
80413;PMS5003;69758;52.580;13.068;2024-02-26T00:34:56;62;59;
80413;PMS5003;69758;52.580;13.068;2024-02-26T00:37:21;65;62;
80413;PMS5003;69758;52.580;13.068;2024-02-26T00:39:46;67;62;
80413;PMS5003;69758;52.580;13.068;2024-02-26T00:42:12;59;55;
80413;PMS5003;69758;52.580;13.068;2024-02-26T00:44:37;54;53;
80413;PMS5003;69758;52.580;13.068;2024-02-26T00:47:03;57;56;
80413;PMS5003;69758;52.580;13.068;2024-02-26T00:49:29;59;57;
80413;PMS5003;69758;52.580;13.068;2024-02-26T00:51:55;59;52;
80413;PMS5003;69758;52.580;13.068;2024-02-26T00:54:20;48;44;
80413;PMS5003;69758;52.580;13.068;2024-02-26T00:56:46;54;49;
80413;PMS5003;69758;52.580;13.068;2024-02-26T00:59:11;69;62;
80413;PMS5003;69758;52.580;13.068;2024-02-26T01:01:36;56;52;
80413;PMS5003;69758;52.580;13.068;2024-02-26T01:04:02;53;48;
80413;PMS5003;69758;52.580;13.068;2024-02-26T01:06:35;57;56;
80413;PMS5003;69758;52.580;13.068;2024-02-26T01:08:54;61;60;
80413;PMS5003;69758;52.580;13.068;2024-02-26T01:11:19;57;50;
80413;PMS5003;69758;52.580;13.068;2024-02-26T01:13:45;55;50;
80413;PMS5003;69758;52.580;13.068;2024-02-26T01:16:10;55;54;
80413;PMS5003;69758;52.580;13.068;2024-02-26T01:18:35;60;59;
80413;PMS5003;69758;52.580;13.068;2024-02-26T01:21:01;56;53;
80413;PMS5003;69758;52.580;13.068;2024-02-26T01:23:27;39;36;
80413;PMS5003;69758;52.580;13.068;2024-02-26T01:25:53;51;49;
80413;PMS5003;69758;52.580;13.068;2024-02-26T01:28:18;46;41;
80413;PMS5003;69758;52.580;13.068;2024-02-26T01:30:44;43;42;
80413;PMS5003;69758;52.580;13.068;2024-02-26T01:33:09;58;50;
80413;PMS5003;69758;52.580;13.068;2024-02-26T01:35:34;37;36;
80413;PMS5003;69758;52.580;13.068;2024-02-26T01:38:00;45;41;
80413;PMS5003;69758;52.580;13.068;2024-02-26T01:40:26;34;34;
80413;PMS5003;69758;52.580;13.068;2024-02-26T01:42:52;33;32;
80413;PMS5003;69758;52.580;13.068;2024-02-26T01:45:16;38;34;
80413;PMS5003;69758;52.580;13.068;2024-02-26T01:47:41;34;33;
80413;PMS5003;69758;52.580;13.068;2024-02-26T01:50:07;29;28;
80413;PMS5003;69758;52.580;13.068;2024-02-26T01:52:32;36;33;
80413;PMS5003;69758;52.580;13.068;2024-02-26T01:54:58;31;28;
80413;PMS5003;69758;52.580;13.068;2024-02-26T01:57:23;32;31;
80413;PMS5003;69758;52.580;13.068;2024-02-26T01:59:49;28;25;
80413;PMS5003;69758;52.580;13.068;2024-02-26T02:02:14;29;27;
80413;PMS5003;69758;52.580;13.068;2024-02-26T02:04:39;35;32;
80413;PMS5003;69758;52.580;13.068;2024-02-26T02:07:05;41;36;
80413;PMS5003;69758;52.580;13.068;2024-02-26T02:09:30;31;28;
80413;PMS5003;69758;52.580;13.068;2024-02-26T02:11:55;27;24;
80413;PMS5003;69758;52.580;13.068;2024-02-26T02:14:21;36;33;
80413;PMS5003;69758;52.580;13.068;2024-02-26T02:16:46;29;29;
80413;PMS5003;69758;52.580;13.068;2024-02-26T02:19:11;30;30;
80413;PMS5003;69758;52.580;13.068;2024-02-26T02:21:36;28;27;
80413;PMS5003;69758;52.580;13.068;2024-02-26T02:24:02;30;28;
80413;PMS5003;69758;52.580;13.068;2024-02-26T02:26:28;28;27;
80413;PMS5003;69758;52.580;13.068;2024-02-26T02:28:53;27;26;
80413;PMS5003;69758;52.580;13.068;2024-02-26T02:31:18;24;22;
80413;PMS5003;69758;52.580;13.068;2024-02-26T02:33:44;23;22;
80413;PMS5003;69758;52.580;13.068;2024-02-26T02:36:09;18;18;
80413;PMS5003;69758;52.580;13.068;2024-02-26T02:38:35;27;27;
80413;PMS5003;69758;52.580;13.068;2024-02-26T02:41:00;24;23;
80413;PMS5003;69758;52.580;13.068;2024-02-26T02:43:26;23;23;
80413;PMS5003;69758;52.580;13.068;2024-02-26T02:45:51;28;28;
80413;PMS5003;69758;52.580;13.068;2024-02-26T02:48:16;21;21;
80413;PMS5003;69758;52.580;13.068;2024-02-26T02:50:42;20;19;
80413;PMS5003;69758;52.580;13.068;2024-02-26T02:53:07;23;21;
80413;PMS5003;69758;52.580;13.068;2024-02-26T02:55:32;24;21;
80413;PMS5003;69758;52.580;13.068;2024-02-26T02:57:58;22;21;
80413;PMS5003;69758;52.580;13.068;2024-02-26T03:00:23;22;21;
80413;PMS5003;69758;52.580;13.068;2024-02-26T03:02:48;23;22;
80413;PMS5003;69758;52.580;13.068;2024-02-26T03:05:14;22;20;
80413;PMS5003;69758;52.580;13.068;2024-02-26T03:07:39;25;24;
80413;PMS5003;69758;52.580;13.068;2024-02-26T03:10:05;26;24;
80413;PMS5003;69758;52.580;13.068;2024-02-26T03:12:30;28;27;
80413;PMS5003;69758;52.580;13.068;2024-02-26T03:14:56;24;23;
80413;PMS5003;69758;52.580;13.068;2024-02-26T03:17:22;28;23;
80413;PMS5003;69758;52.580;13.068;2024-02-26T03:19:48;30;28;
80413;PMS5003;69758;52.580;13.068;2024-02-26T03:22:13;27;25;
80413;PMS5003;69758;52.580;13.068;2024-02-26T03:24:39;27;25;
80413;PMS5003;69758;52.580;13.068;2024-02-26T03:27:04;29;25;
80413;PMS5003;69758;52.580;13.068;2024-02-26T03:29:30;30;26;
80413;PMS5003;69758;52.580;13.068;2024-02-26T03:31:55;28;28;
80413;PMS5003;69758;52.580;13.068;2024-02-26T03:34:20;26;26;
80413;PMS5003;69758;52.580;13.068;2024-02-26T03:36:46;27;25;
80413;PMS5003;69758;52.580;13.068;2024-02-26T03:39:12;23;23;
80413;PMS5003;69758;52.580;13.068;2024-02-26T03:41:37;25;23;
80413;PMS5003;69758;52.580;13.068;2024-02-26T03:44:03;34;34;
80413;PMS5003;69758;52.580;13.068;2024-02-26T03:46:28;27;26;
80413;PMS5003;69758;52.580;13.068;2024-02-26T03:48:53;23;21;
80413;PMS5003;69758;52.580;13.068;2024-02-26T03:51:19;32;31;
80413;PMS5003;69758;52.580;13.068;2024-02-26T03:53:44;34;31;
80413;PMS5003;69758;52.580;13.068;2024-02-26T03:56:11;28;28;
80413;PMS5003;69758;52.580;13.068;2024-02-26T03:58:35;35;34;
80413;PMS5003;69758;52.580;13.068;2024-02-26T04:01:01;25;23;
80413;PMS5003;69758;52.580;13.068;2024-02-26T04:03:26;30;30;
80413;PMS5003;69758;52.580;13.068;2024-02-26T04:05:51;28;27;
80413;PMS5003;69758;52.580;13.068;2024-02-26T04:08:16;32;27;
80413;PMS5003;69758;52.580;13.068;2024-02-26T04:10:42;31;28;
80413;PMS5003;69758;52.580;13.068;2024-02-26T04:13:07;30;30;
80413;PMS5003;69758;52.580;13.068;2024-02-26T04:15:32;33;33;
80413;PMS5003;69758;52.580;13.068;2024-02-26T04:17:58;35;35;
80413;PMS5003;69758;52.580;13.068;2024-02-26T04:20:24;28;27;
80413;PMS5003;69758;52.580;13.068;2024-02-26T04:22:50;29;27;
80413;PMS5003;69758;52.580;13.068;2024-02-26T04:25:15;38;35;
80413;PMS5003;69758;52.580;13.068;2024-02-26T04:27:41;30;29;
80413;PMS5003;69758;52.580;13.068;2024-02-26T04:30:07;30;29;
80413;PMS5003;69758;52.580;13.068;2024-02-26T04:32:31;30;30;
80413;PMS5003;69758;52.580;13.068;2024-02-26T04:34:57;34;34;
80413;PMS5003;69758;52.580;13.068;2024-02-26T04:37:22;31;31;
80413;PMS5003;69758;52.580;13.068;2024-02-26T04:39:48;37;37;
80413;PMS5003;69758;52.580;13.068;2024-02-26T04:42:13;35;34;
80413;PMS5003;69758;52.580;13.068;2024-02-26T04:44:39;33;31;
80413;PMS5003;69758;52.580;13.068;2024-02-26T04:47:05;34;34;
80413;PMS5003;69758;52.580;13.068;2024-02-26T04:49:30;28;28;
80413;PMS5003;69758;52.580;13.068;2024-02-26T04:51:56;35;34;
80413;PMS5003;69758;52.580;13.068;2024-02-26T04:54:21;27;26;
80413;PMS5003;69758;52.580;13.068;2024-02-26T04:56:46;35;32;
80413;PMS5003;69758;52.580;13.068;2024-02-26T04:59:11;31;31;
80413;PMS5003;69758;52.580;13.068;2024-02-26T05:01:36;27;27;
80413;PMS5003;69758;52.580;13.068;2024-02-26T05:04:01;29;29;
80413;PMS5003;69758;52.580;13.068;2024-02-26T05:06:26;39;31;
80413;PMS5003;69758;52.580;13.068;2024-02-26T05:08:52;30;29;
80413;PMS5003;69758;52.580;13.068;2024-02-26T05:11:17;34;31;
80413;PMS5003;69758;52.580;13.068;2024-02-26T05:13:44;34;32;
80413;PMS5003;69758;52.580;13.068;2024-02-26T05:16:09;30;29;
80413;PMS5003;69758;52.580;13.068;2024-02-26T05:18:34;37;34;
80413;PMS5003;69758;52.580;13.068;2024-02-26T05:21:00;33;31;
80413;PMS5003;69758;52.580;13.068;2024-02-26T05:23:25;30;30;
80413;PMS5003;69758;52.580;13.068;2024-02-26T05:25:51;27;27;
80413;PMS5003;69758;52.580;13.068;2024-02-26T05:28:16;27;26;
80413;PMS5003;69758;52.580;13.068;2024-02-26T05:30:42;30;29;
80413;PMS5003;69758;52.580;13.068;2024-02-26T05:33:07;33;33;
80413;PMS5003;69758;52.580;13.068;2024-02-26T05:35:33;33;31;
80413;PMS5003;69758;52.580;13.068;2024-02-26T05:37:58;27;23;
80413;PMS5003;69758;52.580;13.068;2024-02-26T05:40:24;33;31;
80413;PMS5003;69758;52.580;13.068;2024-02-26T05:42:50;37;33;
80413;PMS5003;69758;52.580;13.068;2024-02-26T05:45:16;34;33;
80413;PMS5003;69758;52.580;13.068;2024-02-26T05:47:41;34;31;
80413;PMS5003;69758;52.580;13.068;2024-02-26T05:50:07;33;30;
80413;PMS5003;69758;52.580;13.068;2024-02-26T05:52:32;27;26;
80413;PMS5003;69758;52.580;13.068;2024-02-26T05:54:57;25;24;
80413;PMS5003;69758;52.580;13.068;2024-02-26T05:57:23;23;22;
80413;PMS5003;69758;52.580;13.068;2024-02-26T05:59:49;31;30;
80413;PMS5003;69758;52.580;13.068;2024-02-26T06:02:14;60;55;
80413;PMS5003;69758;52.580;13.068;2024-02-26T06:04:39;50;46;
80413;PMS5003;69758;52.580;13.068;2024-02-26T06:07:05;41;37;
80413;PMS5003;69758;52.580;13.068;2024-02-26T06:09:30;32;31;
80413;PMS5003;69758;52.580;13.068;2024-02-26T06:11:55;30;28;
80413;PMS5003;69758;52.580;13.068;2024-02-26T06:14:20;31;31;
80413;PMS5003;69758;52.580;13.068;2024-02-26T06:16:46;25;25;
80413;PMS5003;69758;52.580;13.068;2024-02-26T06:19:11;30;25;
80413;PMS5003;69758;52.580;13.068;2024-02-26T06:21:36;31;30;
80413;PMS5003;69758;52.580;13.068;2024-02-26T06:24:03;30;29;
80413;PMS5003;69758;52.580;13.068;2024-02-26T06:26:28;31;31;
80413;PMS5003;69758;52.580;13.068;2024-02-26T06:28:53;30;29;
80413;PMS5003;69758;52.580;13.068;2024-02-26T06:31:19;31;27;
80413;PMS5003;69758;52.580;13.068;2024-02-26T06:33:44;32;31;
80413;PMS5003;69758;52.580;13.068;2024-02-26T06:36:09;28;28;
80413;PMS5003;69758;52.580;13.068;2024-02-26T06:38:35;31;30;
80413;PMS5003;69758;52.580;13.068;2024-02-26T06:41:02;23;23;
80413;PMS5003;69758;52.580;13.068;2024-02-26T06:43:27;34;34;
80413;PMS5003;69758;52.580;13.068;2024-02-26T06:45:52;30;24;
80413;PMS5003;69758;52.580;13.068;2024-02-26T06:48:17;26;24;
80413;PMS5003;69758;52.580;13.068;2024-02-26T06:50:47;24;23;
80413;PMS5003;69758;52.580;13.068;2024-02-26T06:53:08;32;30;
80413;PMS5003;69758;52.580;13.068;2024-02-26T06:55:33;27;25;
80413;PMS5003;69758;52.580;13.068;2024-02-26T06:57:58;21;21;
80413;PMS5003;69758;52.580;13.068;2024-02-26T07:00:24;24;22;
80413;PMS5003;69758;52.580;13.068;2024-02-26T07:02:49;30;30;
80413;PMS5003;69758;52.580;13.068;2024-02-26T07:05:15;26;23;
80413;PMS5003;69758;52.580;13.068;2024-02-26T07:07:40;26;24;
80413;PMS5003;69758;52.580;13.068;2024-02-26T07:10:05;35;32;
80413;PMS5003;69758;52.580;13.068;2024-02-26T07:12:31;22;20;
80413;PMS5003;69758;52.580;13.068;2024-02-26T07:14:57;31;28;
80413;PMS5003;69758;52.580;13.068;2024-02-26T07:17:22;32;27;
80413;PMS5003;69758;52.580;13.068;2024-02-26T07:19:48;19;18;
80413;PMS5003;69758;52.580;13.068;2024-02-26T07:22:13;29;27;
80413;PMS5003;69758;52.580;13.068;2024-02-26T07:24:38;25;24;
80413;PMS5003;69758;52.580;13.068;2024-02-26T07:27:04;24;23;
80413;PMS5003;69758;52.580;13.068;2024-02-26T07:29:29;23;23;
80413;PMS5003;69758;52.580;13.068;2024-02-26T07:31:55;25;25;
80413;PMS5003;69758;52.580;13.068;2024-02-26T07:34:20;24;24;
80413;PMS5003;69758;52.580;13.068;2024-02-26T07:36:45;21;20;
80413;PMS5003;69758;52.580;13.068;2024-02-26T07:39:10;21;21;
80413;PMS5003;69758;52.580;13.068;2024-02-26T07:41:36;23;20;
80413;PMS5003;69758;52.580;13.068;2024-02-26T07:44:02;30;28;
80413;PMS5003;69758;52.580;13.068;2024-02-26T07:46:27;30;29;
80413;PMS5003;69758;52.580;13.068;2024-02-26T07:48:52;25;24;
80413;PMS5003;69758;52.580;13.068;2024-02-26T07:51:18;26;24;
80413;PMS5003;69758;52.580;13.068;2024-02-26T07:53:44;27;25;
80413;PMS5003;69758;52.580;13.068;2024-02-26T07:56:09;32;27;
80413;PMS5003;69758;52.580;13.068;2024-02-26T07:58:34;27;24;
80413;PMS5003;69758;52.580;13.068;2024-02-26T08:01:00;22;22;
80413;PMS5003;69758;52.580;13.068;2024-02-26T08:03:25;25;25;
80413;PMS5003;69758;52.580;13.068;2024-02-26T08:05:51;30;29;
80413;PMS5003;69758;52.580;13.068;2024-02-26T08:08:16;26;25;
80413;PMS5003;69758;52.580;13.068;2024-02-26T08:10:41;25;22;
80413;PMS5003;69758;52.580;13.068;2024-02-26T08:13:06;28;25;
80413;PMS5003;69758;52.580;13.068;2024-02-26T08:15:32;33;31;
80413;PMS5003;69758;52.580;13.068;2024-02-26T08:17:58;22;21;
80413;PMS5003;69758;52.580;13.068;2024-02-26T08:20:23;27;26;
80413;PMS5003;69758;52.580;13.068;2024-02-26T08:22:48;30;28;
80413;PMS5003;69758;52.580;13.068;2024-02-26T08:25:14;32;29;
80413;PMS5003;69758;52.580;13.068;2024-02-26T08:27:40;27;26;
80413;PMS5003;69758;52.580;13.068;2024-02-26T08:30:06;36;34;
80413;PMS5003;69758;52.580;13.068;2024-02-26T08:32:30;24;24;
80413;PMS5003;69758;52.580;13.068;2024-02-26T08:34:56;28;26;
80413;PMS5003;69758;52.580;13.068;2024-02-26T08:37:21;27;25;
80413;PMS5003;69758;52.580;13.068;2024-02-26T08:39:47;37;34;
80413;PMS5003;69758;52.580;13.068;2024-02-26T08:42:18;40;37;
80413;PMS5003;69758;52.580;13.068;2024-02-26T08:44:38;32;29;
80413;PMS5003;69758;52.580;13.068;2024-02-26T08:47:04;29;26;
80413;PMS5003;69758;52.580;13.068;2024-02-26T08:49:29;34;33;
80413;PMS5003;69758;52.580;13.068;2024-02-26T08:51:54;30;26;
80413;PMS5003;69758;52.580;13.068;2024-02-26T08:54:20;26;25;
80413;PMS5003;69758;52.580;13.068;2024-02-26T08:56:45;30;27;
80413;PMS5003;69758;52.580;13.068;2024-02-26T08:59:10;30;30;
80413;PMS5003;69758;52.580;13.068;2024-02-26T09:01:35;32;29;
80413;PMS5003;69758;52.580;13.068;2024-02-26T09:04:01;32;31;
80413;PMS5003;69758;52.580;13.068;2024-02-26T09:06:27;44;43;
80413;PMS5003;69758;52.580;13.068;2024-02-26T09:08:52;30;28;
80413;PMS5003;69758;52.580;13.068;2024-02-26T09:11:18;36;33;
80413;PMS5003;69758;52.580;13.068;2024-02-26T09:13:43;39;36;
80413;PMS5003;69758;52.580;13.068;2024-02-26T09:16:09;34;32;
80413;PMS5003;69758;52.580;13.068;2024-02-26T09:18:34;33;31;
80413;PMS5003;69758;52.580;13.068;2024-02-26T09:21:03;38;34;
80413;PMS5003;69758;52.580;13.068;2024-02-26T09:23:26;40;38;
80413;PMS5003;69758;52.580;13.068;2024-02-26T09:25:50;33;32;
80413;PMS5003;69758;52.580;13.068;2024-02-26T09:28:16;35;32;
80413;PMS5003;69758;52.580;13.068;2024-02-26T09:30:42;33;32;
80413;PMS5003;69758;52.580;13.068;2024-02-26T09:33:07;35;35;
80413;PMS5003;69758;52.580;13.068;2024-02-26T09:35:32;34;33;
80413;PMS5003;69758;52.580;13.068;2024-02-26T09:37:58;41;37;
80413;PMS5003;69758;52.580;13.068;2024-02-26T09:40:23;36;35;
80413;PMS5003;69758;52.580;13.068;2024-02-26T09:42:49;37;33;
80413;PMS5003;69758;52.580;13.068;2024-02-26T09:45:17;38;37;
80413;PMS5003;69758;52.580;13.068;2024-02-26T09:47:40;37;32;
80413;PMS5003;69758;52.580;13.068;2024-02-26T09:50:05;38;35;
80413;PMS5003;69758;52.580;13.068;2024-02-26T09:52:30;35;33;
80413;PMS5003;69758;52.580;13.068;2024-02-26T09:54:55;36;33;
80413;PMS5003;69758;52.580;13.068;2024-02-26T09:57:21;30;30;
80413;PMS5003;69758;52.580;13.068;2024-02-26T09:59:46;36;34;
80413;PMS5003;69758;52.580;13.068;2024-02-26T10:02:12;35;34;
80413;PMS5003;69758;52.580;13.068;2024-02-26T10:04:37;31;31;
80413;PMS5003;69758;52.580;13.068;2024-02-26T10:07:03;33;32;
80413;PMS5003;69758;52.580;13.068;2024-02-26T10:09:29;40;38;
80413;PMS5003;69758;52.580;13.068;2024-02-26T10:11:54;34;32;
80413;PMS5003;69758;52.580;13.068;2024-02-26T10:14:19;36;33;
80413;PMS5003;69758;52.580;13.068;2024-02-26T10:16:45;31;29;
80413;PMS5003;69758;52.580;13.068;2024-02-26T10:19:11;34;32;
80413;PMS5003;69758;52.580;13.068;2024-02-26T10:21:36;32;31;
80413;PMS5003;69758;52.580;13.068;2024-02-26T10:24:01;34;31;
80413;PMS5003;69758;52.580;13.068;2024-02-26T10:26:27;35;32;
80413;PMS5003;69758;52.580;13.068;2024-02-26T10:28:52;30;29;
80413;PMS5003;69758;52.580;13.068;2024-02-26T10:31:18;32;30;
80413;PMS5003;69758;52.580;13.068;2024-02-26T10:33:43;29;29;
80413;PMS5003;69758;52.580;13.068;2024-02-26T10:36:08;35;34;
80413;PMS5003;69758;52.580;13.068;2024-02-26T10:38:34;26;26;
80413;PMS5003;69758;52.580;13.068;2024-02-26T10:40:59;26;25;
80413;PMS5003;69758;52.580;13.068;2024-02-26T10:43:25;30;30;
80413;PMS5003;69758;52.580;13.068;2024-02-26T10:45:50;30;28;
80413;PMS5003;69758;52.580;13.068;2024-02-26T10:48:15;33;32;
80413;PMS5003;69758;52.580;13.068;2024-02-26T10:50:41;32;28;
80413;PMS5003;69758;52.580;13.068;2024-02-26T10:53:10;29;26;
80413;PMS5003;69758;52.580;13.068;2024-02-26T10:55:32;22;22;
80413;PMS5003;69758;52.580;13.068;2024-02-26T10:57:57;36;32;
80413;PMS5003;69758;52.580;13.068;2024-02-26T11:00:23;29;26;
80413;PMS5003;69758;52.580;13.068;2024-02-26T11:02:48;27;26;
80413;PMS5003;69758;52.580;13.068;2024-02-26T11:05:14;27;26;
80413;PMS5003;69758;52.580;13.068;2024-02-26T11:07:38;33;33;
80413;PMS5003;69758;52.580;13.068;2024-02-26T11:10:04;33;30;
80413;PMS5003;69758;52.580;13.068;2024-02-26T11:12:29;28;27;
80413;PMS5003;69758;52.580;13.068;2024-02-26T11:14:55;29;26;
80413;PMS5003;69758;52.580;13.068;2024-02-26T11:17:21;27;27;
80413;PMS5003;69758;52.580;13.068;2024-02-26T11:19:46;31;29;
80413;PMS5003;69758;52.580;13.068;2024-02-26T11:22:12;28;24;
80413;PMS5003;69758;52.580;13.068;2024-02-26T11:24:38;23;23;
80413;PMS5003;69758;52.580;13.068;2024-02-26T11:27:03;29;27;
80413;PMS5003;69758;52.580;13.068;2024-02-26T11:29:30;26;25;
80413;PMS5003;69758;52.580;13.068;2024-02-26T11:31:55;26;24;
80413;PMS5003;69758;52.580;13.068;2024-02-26T11:34:20;22;21;
80413;PMS5003;69758;52.580;13.068;2024-02-26T11:36:46;28;27;
80413;PMS5003;69758;52.580;13.068;2024-02-26T11:39:11;25;24;
80413;PMS5003;69758;52.580;13.068;2024-02-26T11:41:36;27;23;
80413;PMS5003;69758;52.580;13.068;2024-02-26T11:44:01;22;20;
80413;PMS5003;69758;52.580;13.068;2024-02-26T11:46:28;28;24;
80413;PMS5003;69758;52.580;13.068;2024-02-26T11:48:54;26;26;
80413;PMS5003;69758;52.580;13.068;2024-02-26T11:51:19;33;30;
80413;PMS5003;69758;52.580;13.068;2024-02-26T11:53:45;29;28;
80413;PMS5003;69758;52.580;13.068;2024-02-26T11:58:38;28;25;
80413;PMS5003;69758;52.580;13.068;2024-02-26T12:01:03;28;28;
80413;PMS5003;69758;52.580;13.068;2024-02-26T12:03:27;22;22;
80413;PMS5003;69758;52.580;13.068;2024-02-26T12:05:52;27;24;
80413;PMS5003;69758;52.580;13.068;2024-02-26T12:08:18;30;29;
80413;PMS5003;69758;52.580;13.068;2024-02-26T12:10:43;24;23;
80413;PMS5003;69758;52.580;13.068;2024-02-26T12:13:10;25;24;
80413;PMS5003;69758;52.580;13.068;2024-02-26T12:15:36;32;29;
80413;PMS5003;69758;52.580;13.068;2024-02-26T12:18:01;28;26;
80413;PMS5003;69758;52.580;13.068;2024-02-26T12:20:25;25;23;
80413;PMS5003;69758;52.580;13.068;2024-02-26T12:22:50;20;20;
80413;PMS5003;69758;52.580;13.068;2024-02-26T12:25:16;22;22;
80413;PMS5003;69758;52.580;13.068;2024-02-26T12:27:41;20;19;
80413;PMS5003;69758;52.580;13.068;2024-02-26T12:30:07;22;20;
80413;PMS5003;69758;52.580;13.068;2024-02-26T12:32:31;21;20;
80413;PMS5003;69758;52.580;13.068;2024-02-26T12:34:57;16;15;
80413;PMS5003;69758;52.580;13.068;2024-02-26T12:37:22;16;14;
80413;PMS5003;69758;52.580;13.068;2024-02-26T12:39:47;12;12;
80413;PMS5003;69758;52.580;13.068;2024-02-26T12:42:14;18;18;
80413;PMS5003;69758;52.580;13.068;2024-02-26T12:44:38;14;12;
80413;PMS5003;69758;52.580;13.068;2024-02-26T12:47:03;14;14;
80413;PMS5003;69758;52.580;13.068;2024-02-26T12:49:29;12;12;
80413;PMS5003;69758;52.580;13.068;2024-02-26T12:51:54;15;13;
80413;PMS5003;69758;52.580;13.068;2024-02-26T12:54:20;20;17;
80413;PMS5003;69758;52.580;13.068;2024-02-26T12:56:45;19;18;
80413;PMS5003;69758;52.580;13.068;2024-02-26T12:59:11;17;17;
80413;PMS5003;69758;52.580;13.068;2024-02-26T13:01:36;21;19;
80413;PMS5003;69758;52.580;13.068;2024-02-26T13:04:02;20;16;
80413;PMS5003;69758;52.580;13.068;2024-02-26T13:06:28;15;14;
80413;PMS5003;69758;52.580;13.068;2024-02-26T13:08:56;14;14;
80413;PMS5003;69758;52.580;13.068;2024-02-26T13:11:19;18;15;
80413;PMS5003;69758;52.580;13.068;2024-02-26T13:13:47;15;14;
80413;PMS5003;69758;52.580;13.068;2024-02-26T13:16:10;15;15;
80413;PMS5003;69758;52.580;13.068;2024-02-26T13:18:35;17;15;
80413;PMS5003;69758;52.580;13.068;2024-02-26T13:21:07;18;15;
80413;PMS5003;69758;52.580;13.068;2024-02-26T13:23:26;13;13;
80413;PMS5003;69758;52.580;13.068;2024-02-26T13:25:56;14;13;
80413;PMS5003;69758;52.580;13.068;2024-02-26T13:28:17;12;11;
80413;PMS5003;69758;52.580;13.068;2024-02-26T13:30:42;12;11;
80413;PMS5003;69758;52.580;13.068;2024-02-26T13:33:07;13;13;
80413;PMS5003;69758;52.580;13.068;2024-02-26T13:35:32;12;11;
80413;PMS5003;69758;52.580;13.068;2024-02-26T13:37:58;11;11;
80413;PMS5003;69758;52.580;13.068;2024-02-26T13:40:23;10;10;
80413;PMS5003;69758;52.580;13.068;2024-02-26T13:42:48;11;11;
80413;PMS5003;69758;52.580;13.068;2024-02-26T13:45:14;10;10;
80413;PMS5003;69758;52.580;13.068;2024-02-26T13:47:39;12;11;
80413;PMS5003;69758;52.580;13.068;2024-02-26T13:50:05;10;10;
80413;PMS5003;69758;52.580;13.068;2024-02-26T13:52:29;9;9;
80413;PMS5003;69758;52.580;13.068;2024-02-26T13:54:55;10;10;
80413;PMS5003;69758;52.580;13.068;2024-02-26T13:57:20;9;9;
80413;PMS5003;69758;52.580;13.068;2024-02-26T13:59:45;9;9;
80413;PMS5003;69758;52.580;13.068;2024-02-26T14:02:11;9;8;
80413;PMS5003;69758;52.580;13.068;2024-02-26T14:04:36;6;6;
80413;PMS5003;69758;52.580;13.068;2024-02-26T14:07:02;6;6;
80413;PMS5003;69758;52.580;13.068;2024-02-26T14:09:27;8;8;
80413;PMS5003;69758;52.580;13.068;2024-02-26T14:11:52;8;7;
80413;PMS5003;69758;52.580;13.068;2024-02-26T14:14:18;7;7;
80413;PMS5003;69758;52.580;13.068;2024-02-26T14:16:43;7;7;
80413;PMS5003;69758;52.580;13.068;2024-02-26T14:19:09;10;9;
80413;PMS5003;69758;52.580;13.068;2024-02-26T14:21:34;7;6;
80413;PMS5003;69758;52.580;13.068;2024-02-26T14:23:59;5;5;
80413;PMS5003;69758;52.580;13.068;2024-02-26T14:26:24;6;6;
80413;PMS5003;69758;52.580;13.068;2024-02-26T14:28:50;6;6;
80413;PMS5003;69758;52.580;13.068;2024-02-26T14:31:17;7;7;
80413;PMS5003;69758;52.580;13.068;2024-02-26T14:33:40;6;6;
80413;PMS5003;69758;52.580;13.068;2024-02-26T14:36:06;7;7;
80413;PMS5003;69758;52.580;13.068;2024-02-26T14:38:31;6;5;
80413;PMS5003;69758;52.580;13.068;2024-02-26T14:40:56;6;5;
80413;PMS5003;69758;52.580;13.068;2024-02-26T14:43:21;7;6;
80413;PMS5003;69758;52.580;13.068;2024-02-26T14:45:47;7;7;
80413;PMS5003;69758;52.580;13.068;2024-02-26T14:48:12;9;8;
80413;PMS5003;69758;52.580;13.068;2024-02-26T14:50:37;8;8;
80413;PMS5003;69758;52.580;13.068;2024-02-26T14:53:03;10;9;
80413;PMS5003;69758;52.580;13.068;2024-02-26T14:55:28;9;9;
80413;PMS5003;69758;52.580;13.068;2024-02-26T14:57:53;10;9;
80413;PMS5003;69758;52.580;13.068;2024-02-26T15:00:18;9;9;
80413;PMS5003;69758;52.580;13.068;2024-02-26T15:02:44;8;8;
80413;PMS5003;69758;52.580;13.068;2024-02-26T15:05:09;9;9;
80413;PMS5003;69758;52.580;13.068;2024-02-26T15:07:34;12;12;
80413;PMS5003;69758;52.580;13.068;2024-02-26T15:10:00;10;9;
80413;PMS5003;69758;52.580;13.068;2024-02-26T15:12:25;8;8;
80413;PMS5003;69758;52.580;13.068;2024-02-26T15:14:50;8;8;
80413;PMS5003;69758;52.580;13.068;2024-02-26T15:17:15;8;8;
80413;PMS5003;69758;52.580;13.068;2024-02-26T15:19:40;10;8;
80413;PMS5003;69758;52.580;13.068;2024-02-26T15:22:06;12;11;
80413;PMS5003;69758;52.580;13.068;2024-02-26T15:24:31;9;9;
80413;PMS5003;69758;52.580;13.068;2024-02-26T15:26:57;13;11;
80413;PMS5003;69758;52.580;13.068;2024-02-26T15:29:22;13;11;
80413;PMS5003;69758;52.580;13.068;2024-02-26T15:31:47;11;11;
80413;PMS5003;69758;52.580;13.068;2024-02-26T15:34:13;10;10;
80413;PMS5003;69758;52.580;13.068;2024-02-26T15:36:38;12;12;
80413;PMS5003;69758;52.580;13.068;2024-02-26T15:39:03;17;16;
80413;PMS5003;69758;52.580;13.068;2024-02-26T15:41:29;12;11;
80413;PMS5003;69758;52.580;13.068;2024-02-26T15:43:54;13;12;
80413;PMS5003;69758;52.580;13.068;2024-02-26T15:46:19;17;16;
80413;PMS5003;69758;52.580;13.068;2024-02-26T15:48:45;13;13;
80413;PMS5003;69758;52.580;13.068;2024-02-26T15:53:35;12;12;
80413;PMS5003;69758;52.580;13.068;2024-02-26T15:56:00;12;11;